Albert Lea, MN

10:17 AM CST on January 23, 2018 (GMT -0600)
Albert Lea Municipal

Weather History for KAEL - January, 2013

Change the Weather History Date:

Friday, January 25, 2013

  Actual Average Record
Temperature  
Mean Temperature 14 °F -  
Max Temperature 24 °F 21 °F 50 °F (2002)
Min Temperature 3 °F 8 °F -14 °F (1997)
Degree Days  
Heating Degree Days 50    
Moisture  
Dew Point 7 °F    
Average Humidity 72    
Maximum Humidity 86    
Minimum Humidity 49    
Precipitation  
Precipitation 0.00 in - - ()
Sea Level Pressure  
Sea Level Pressure 30.08 in    
Wind  
Wind Speed 10 mph (West)    
Max Wind Speed 21 mph    
Max Gust Speed 34 mph    
Visibility 10 miles    
Events Snow    
Averages and records for this station are not official NWS values.
T = Trace of Precipitation, MM = Missing Value Source: NWS Daily Summary

Daily Weather History Graph

Daily Weather History Graph

Search for Another Location

Airport or City:

Trip Planner

Search our weather history database for the weather conditions in past years. The results will help you decide how hot, cold, wet, or windy it might be!

Date:

Astronomy

Jan. 25, 2013 Rise Set
Actual Time 7:36 AM CST 5:15 PM CST
Civil Twilight 7:05 AM CST 5:46 PM CST
Nautical Twilight 6:30 AM CST 6:21 PM CST
Astronomical Twilight 5:57 AM CST 6:55 PM CST
Moon 4:13 PM CST (1/25) 6:17 AM CST (1/25)
Length of Visible Light 10h 40m
Length of Day
9h 38m
Waxing Gibbous, 98% of the Moon is Illuminated
Jan 25
Waxing Gibbous
Jan 26
Full
Feb 3
Last Quarter
Feb 10
New
Feb 17
First Quarter

Hourly Weather History & Observations

Time (CST) Temp. Windchill Dew Point Humidity Pressure Visibility Wind Dir Wind Speed Gust Speed Precip Events Conditions
12:11 AM 17.6 °F 4.3 °F 6.8 °F 63% 30.12 in 7.0 mi South 12.7 mph 20.7 mph N/A   Clear
12:31 AM 17.6 °F 5.7 °F 8.6 °F 68% 30.12 in 3.0 mi South 10.4 mph 19.6 mph N/A Snow Light Snow
12:50 AM 15.8 °F 4.2 °F 10.4 °F 79% 30.12 in 2.0 mi South 9.2 mph - N/A Snow Light Snow
1:11 AM 15.8 °F 6.1 °F 12.2 °F 86% 30.12 in 7.0 mi SSW 6.9 mph - N/A Snow Light Snow
1:31 AM 15.8 °F 3.4 °F 12.2 °F 86% 30.09 in 10.0 mi South 10.4 mph - N/A   Overcast
1:50 AM 17.6 °F 7.3 °F 12.2 °F 79% 30.11 in 10.0 mi SSW 8.1 mph - N/A   Overcast
2:11 AM 17.6 °F 8.2 °F 12.2 °F 79% 30.09 in 10.0 mi South 6.9 mph - N/A   Overcast
2:30 AM 17.6 °F 7.3 °F 12.2 °F 79% 30.08 in 10.0 mi SSW 8.1 mph - N/A   Overcast
2:51 AM 17.6 °F 8.2 °F 12.2 °F 79% 30.07 in 10.0 mi SSW 6.9 mph 16.1 mph N/A   Overcast
3:10 AM 17.6 °F 8.2 °F 12.2 °F 79% 30.06 in 10.0 mi SSW 6.9 mph - N/A   Overcast
3:31 AM 17.6 °F 6.4 °F 12.2 °F 79% 30.04 in 10.0 mi South 9.2 mph - N/A   Overcast
3:51 AM 17.6 °F 6.4 °F 10.4 °F 73% 30.04 in 10.0 mi SSW 9.2 mph - N/A   Mostly Cloudy
4:10 AM 17.6 °F 8.2 °F 10.4 °F 73% 30.03 in 10.0 mi SSW 6.9 mph - N/A   Scattered Clouds
4:31 AM 17.6 °F 8.2 °F 10.4 °F 73% 30.02 in 10.0 mi SSW 6.9 mph - N/A   Clear
4:51 AM 15.8 °F 7.2 °F 8.6 °F 73% 30.02 in 10.0 mi SSW 5.8 mph - N/A   Clear
5:10 AM 15.8 °F 6.1 °F 8.6 °F 73% 30.01 in 10.0 mi SSW 6.9 mph - N/A   Clear
5:31 AM 15.8 °F 7.2 °F 8.6 °F 73% 30.00 in 10.0 mi SW 5.8 mph - N/A   Clear
5:51 AM 15.8 °F 6.1 °F 6.8 °F 68% 29.99 in 10.0 mi SW 6.9 mph - N/A   Clear
6:10 AM 15.8 °F 5.1 °F 6.8 °F 68% 29.98 in 10.0 mi SW 8.1 mph - N/A   Clear
6:31 AM 15.8 °F 5.1 °F 6.8 °F 68% 29.98 in 10.0 mi SW 8.1 mph - N/A   Clear
6:51 AM 14.0 °F 3.9 °F 6.8 °F 73% 29.98 in 10.0 mi SW 6.9 mph - N/A   Clear
7:31 AM 15.8 °F 4.2 °F 8.6 °F 73% 29.97 in 10.0 mi WSW 9.2 mph - N/A   Clear
7:51 AM 15.8 °F 3.4 °F 8.6 °F 73% 29.97 in 10.0 mi WSW 10.4 mph 17.3 mph N/A   Mostly Cloudy
8:10 AM 15.8 °F 4.2 °F 10.4 °F 79% 29.97 in 10.0 mi WSW 9.2 mph - N/A   Overcast
8:31 AM 17.6 °F 6.4 °F 10.4 °F 73% 29.97 in 10.0 mi West 9.2 mph - N/A   Overcast
8:50 AM 17.6 °F 7.3 °F 12.2 °F 79% 29.98 in 10.0 mi West 8.1 mph 16.1 mph N/A   Overcast
9:11 AM 17.6 °F 6.4 °F 12.2 °F 79% 29.99 in 10.0 mi West 9.2 mph - N/A   Overcast
9:31 AM 19.4 °F 10.4 °F 14.0 °F 80% 29.99 in 10.0 mi West 6.9 mph - N/A   Overcast
9:50 AM 19.4 °F 7.2 °F 15.8 °F 86% 29.98 in 10.0 mi West 11.5 mph 17.3 mph N/A   Overcast
10:11 AM 21.2 °F 11.7 °F 15.8 °F 80% 29.98 in 10.0 mi West 8.1 mph - N/A   Overcast
10:31 AM 21.2 °F 10.1 °F 17.6 °F 86% 29.98 in 7.0 mi WNW 10.4 mph 20.7 mph N/A   Overcast
10:51 AM 24.8 °F 11.9 °F 17.6 °F 74% 29.98 in 7.0 mi WNW 16.1 mph 24.2 mph N/A   Overcast
11:11 AM 24.8 °F 10.7 °F 17.6 °F 74% 29.98 in 10.0 mi WNW 19.6 mph 33.4 mph N/A   Mostly Cloudy
11:30 AM 23.0 °F 9.6 °F 17.6 °F 80% 29.98 in 3.0 mi NW 16.1 mph 28.8 mph N/A Snow Light Snow
11:51 AM 24.8 °F 10.3 °F 12.2 °F 59% 29.98 in 10.0 mi WNW 20.7 mph 34.5 mph N/A   Clear
12:10 PM 23.0 °F 8.3 °F 10.4 °F 59% 30.00 in 10.0 mi NW 19.6 mph 29.9 mph N/A   Clear
12:31 PM 21.2 °F 9.5 °F 10.4 °F 63% 30.01 in 10.0 mi NW 11.5 mph 25.3 mph N/A   Clear
12:51 PM 21.2 °F 5.6 °F 6.8 °F 54% 30.01 in 10.0 mi NW 20.7 mph 29.9 mph N/A   Clear
1:10 PM 21.2 °F 6.8 °F 6.8 °F 54% 30.02 in 10.0 mi NW 17.3 mph 27.6 mph N/A   Clear
1:31 PM 19.4 °F 4.5 °F 5.0 °F 54% 30.03 in 10.0 mi WNW 17.3 mph 27.6 mph N/A   Clear
1:51 PM 19.4 °F 5.0 °F 3.2 °F 49% 30.03 in 10.0 mi WNW 16.1 mph 29.9 mph N/A   Clear
2:10 PM 19.4 °F 4.5 °F 3.2 °F 49% 30.03 in 10.0 mi WNW 17.3 mph 31.1 mph N/A   Clear
2:31 PM 19.4 °F 5.0 °F 5.0 °F 54% 30.04 in 10.0 mi WNW 16.1 mph 26.5 mph N/A   Clear
2:51 PM 19.4 °F 4.1 °F 3.2 °F 49% 30.05 in 10.0 mi WNW 18.4 mph 24.2 mph N/A   Clear
3:10 PM 19.4 °F 5.0 °F 5.0 °F 54% 30.06 in 10.0 mi WNW 16.1 mph 23.0 mph N/A   Clear
3:31 PM 17.6 °F 5.7 °F 5.0 °F 58% 30.07 in 10.0 mi NW 10.4 mph 21.9 mph N/A   Clear
3:51 PM 17.6 °F 4.3 °F 5.0 °F 58% 30.07 in 10.0 mi NW 12.7 mph 26.5 mph N/A   Clear
4:10 PM 15.8 °F 0.9 °F 5.0 °F 62% 30.09 in 10.0 mi NW 15.0 mph 21.9 mph N/A   Clear
4:31 PM 14.0 °F 1.2 °F 5.0 °F 67% 30.10 in 10.0 mi NW 10.4 mph 19.6 mph N/A   Clear
4:51 PM 12.2 °F -1.8 °F 5.0 °F 73% 30.11 in 10.0 mi NW 11.5 mph 19.6 mph N/A   Clear
5:10 PM 12.2 °F -1.0 °F 3.2 °F 67% 30.11 in 10.0 mi WNW 10.4 mph 19.6 mph N/A   Clear
5:31 PM 12.2 °F -0.2 °F 3.2 °F 67% 30.12 in 10.0 mi NW 9.2 mph 17.3 mph N/A   Clear
5:51 PM 10.4 °F -4.1 °F 3.2 °F 73% 30.14 in 10.0 mi NW 11.5 mph 19.6 mph N/A   Clear
6:10 PM 10.4 °F -2.4 °F 3.2 °F 73% 30.15 in 10.0 mi NW 9.2 mph 16.1 mph N/A   Clear
6:31 PM 10.4 °F -3.3 °F 3.2 °F 73% 30.15 in 10.0 mi NW 10.4 mph 17.3 mph N/A   Clear
6:51 PM 10.4 °F -0.4 °F 3.2 °F 73% 30.16 in 10.0 mi NW 6.9 mph - N/A   Clear
7:10 PM 8.6 °F -4.7 °F 3.2 °F 79% 30.17 in 10.0 mi NW 9.2 mph - N/A   Clear
7:31 PM 8.6 °F -5.5 °F 3.2 °F 79% 30.18 in 10.0 mi NW 10.4 mph 16.1 mph N/A   Clear
7:51 PM 8.6 °F -4.7 °F 1.4 °F 73% 30.19 in 10.0 mi NW 9.2 mph 18.4 mph N/A   Clear
8:10 PM 8.6 °F -6.3 °F 1.4 °F 73% 30.19 in 10.0 mi NW 11.5 mph 18.4 mph N/A   Clear
8:31 PM 6.8 °F -7.8 °F 1.4 °F 79% 30.19 in 10.0 mi NNW 10.4 mph 16.1 mph N/A   Clear
8:51 PM 6.8 °F -9.3 °F 1.4 °F 79% 30.20 in 10.0 mi NNW 12.7 mph 19.6 mph N/A   Clear
9:10 PM 6.8 °F -7.8 °F 1.4 °F 79% 30.22 in 10.0 mi NW 10.4 mph 17.3 mph N/A   Clear
9:31 PM 6.8 °F -5.9 °F 1.4 °F 79% 30.22 in 10.0 mi NW 8.1 mph - N/A   Clear
9:51 PM 6.8 °F -5.9 °F 1.4 °F 79% 30.23 in 10.0 mi NW 8.1 mph - N/A   Clear
10:10 PM 6.8 °F -2.0 °F 1.4 °F 79% 30.24 in 10.0 mi NW 4.6 mph - N/A   Clear
10:51 PM 5.0 °F -4.1 °F 1.4 °F 85% 30.24 in 10.0 mi NW 4.6 mph - N/A   Clear
11:10 PM 5.0 °F -4.1 °F 1.4 °F 85% 30.23 in 10.0 mi NNW 4.6 mph - N/A   Clear
11:31 PM 5.0 °F -5.6 °F -0.4 °F 78% 30.24 in 10.0 mi NNW 5.8 mph - N/A   Clear
11:51 PM 3.2 °F -4.2 °F -0.4 °F 85% 30.24 in 10.0 mi NW 3.5 mph - N/A   Clear